Time;durP1;ratioP1;P1;durP2;ratioP2;P2;SDS_P1;SDS_P2;PMS_P1;PMS_P2;Temp;Humidity;BMP_temperature;BMP_pressure;BME280_temperature;BME280_humidity;BME280_pressure;Samples;Min_cycle;Max_cycle;Signal;HPM_P1;HPM_P2
2021/09/21 00:00:52;;;;;;;15.35;11.18;;;12.00;99.90;;;;;;2098004;28;20135;-70
2021/09/21 00:01:52;;;;;;;12.88;10.98;;;11.90;99.90;;;;;;2097759;28;20438;-70
2021/09/21 00:02:53;;;;;;;14.35;11.52;;;11.90;99.90;;;;;;2097733;28;20393;-70
2021/09/21 00:03:54;;;;;;;14.45;11.38;;;11.90;99.90;;;;;;2097973;28;20024;-70
2021/09/21 00:04:54;;;;;;;13.95;11.02;;;11.90;99.90;;;;;;2097877;28;20708;-70
2021/09/21 00:05:55;;;;;;;13.00;10.88;;;11.90;99.90;;;;;;2097827;28;20024;-70
2021/09/21 00:06:56;;;;;;;12.55;10.48;;;11.90;99.90;;;;;;2097212;28;20036;-70
2021/09/21 00:07:56;;;;;;;12.75;10.35;;;11.90;99.90;;;;;;2097775;28;20024;-70
2021/09/21 00:08:57;;;;;;;14.57;10.40;;;11.90;99.90;;;;;;2097852;28;20123;-70
2021/09/21 00:09:58;;;;;;;13.30;10.70;;;11.90;99.90;;;;;;2097304;28;20028;-70
2021/09/21 00:11:00;;;;;;;12.05;10.30;;;11.90;99.90;;;;;;2097168;28;20058;-70
2021/09/21 00:12:00;;;;;;;13.63;10.65;;;11.90;99.90;;;;;;2097677;28;20593;-70
2021/09/21 00:13:02;;;;;;;14.30;11.15;;;11.90;99.90;;;;;;2096824;28;20031;-70
2021/09/21 00:14:03;;;;;;;14.32;11.00;;;11.90;99.90;;;;;;2097073;28;20488;-71
2021/09/21 00:15:08;;;;;;;13.30;10.55;;;11.90;99.90;;;;;;2097001;28;20090;-70
2021/09/21 00:16:09;;;;;;;12.07;9.98;;;11.90;99.90;;;;;;2096999;28;20028;-70
2021/09/21 00:17:09;;;;;;;12.50;10.00;;;11.90;99.90;;;;;;2096673;28;20539;-70
2021/09/21 00:18:10;;;;;;;13.20;10.45;;;11.90;99.90;;;;;;2097585;28;20113;-70
2021/09/21 00:19:11;;;;;;;12.45;10.48;;;11.90;99.90;;;;;;2097611;28;20397;-70
2021/09/21 00:20:12;;;;;;;14.57;11.18;;;11.90;99.90;;;;;;2097732;28;20079;-70
2021/09/21 00:21:14;;;;;;;14.15;10.60;;;11.90;99.90;;;;;;2097314;28;20036;-70
2021/09/21 00:22:14;;;;;;;14.18;10.60;;;11.90;99.90;;;;;;2097209;28;20029;-70
2021/09/21 00:23:18;;;;;;;12.43;10.27;;;11.90;99.90;;;;;;2096995;28;20048;-70
2021/09/21 00:24:19;;;;;;;12.30;9.90;;;11.90;99.90;;;;;;2089235;28;20640;-70
2021/09/21 00:25:19;;;;;;;13.18;10.10;;;11.90;99.90;;;;;;2097118;28;20119;-70
2021/09/21 00:26:20;;;;;;;12.73;10.30;;;11.90;99.90;;;;;;2105437;28;20036;-70
2021/09/21 00:27:21;;;;;;;11.63;9.52;;;11.90;99.90;;;;;;2096809;28;20666;-69
2021/09/21 00:28:22;;;;;;;14.40;9.98;;;11.80;99.90;;;;;;2096902;28;20119;-70
2021/09/21 00:29:23;;;;;;;12.63;9.63;;;11.80;99.90;;;;;;2088435;28;20017;-69
2021/09/21 00:30:23;;;;;;;11.95;9.50;;;11.80;99.90;;;;;;2088577;28;20025;-69
2021/09/21 00:31:25;;;;;;;14.68;10.00;;;11.80;99.90;;;;;;2088701;28;20490;-70
2021/09/21 00:32:26;;;;;;;12.80;9.38;;;11.80;99.90;;;;;;2096869;28;20017;-68
2021/09/21 00:33:29;;;;;;;12.20;9.68;;;11.80;99.90;;;;;;2096936;28;20028;-67
2021/09/21 00:34:37;;;;;;;11.38;9.27;;;11.80;99.90;;;;;;2097065;28;20020;-70
2021/09/21 00:35:38;;;;;;;12.07;9.30;;;11.80;99.90;;;;;;2097409;28;20052;-69
2021/09/21 00:36:41;;;;;;;11.88;9.60;;;11.80;99.90;;;;;;2096822;28;20032;-69
2021/09/21 00:37:42;;;;;;;11.27;9.27;;;11.80;99.90;;;;;;2097341;28;20113;-69
2021/09/21 00:38:43;;;;;;;12.65;9.80;;;11.80;99.90;;;;;;2097518;28;20089;-71
2021/09/21 00:39:45;;;;;;;11.40;9.50;;;11.80;99.90;;;;;;2097421;28;20015;-69
2021/09/21 00:40:46;;;;;;;11.23;9.68;;;11.80;99.90;;;;;;2097424;28;20013;-70
2021/09/21 00:41:49;;;;;;;11.90;10.07;;;11.80;99.90;;;;;;2097445;28;20056;-70
2021/09/21 00:42:51;;;;;;;12.05;10.07;;;11.80;99.90;;;;;;2097064;28;20043;-69
2021/09/21 00:43:52;;;;;;;13.95;10.10;;;11.80;99.90;;;;;;2097514;28;20028;-69
2021/09/21 00:45:02;;;;;;;12.27;9.95;;;11.80;99.90;;;;;;2097572;28;20139;-68
2021/09/21 00:46:03;;;;;;;13.68;10.27;;;11.80;99.90;;;;;;2097431;28;20035;-70
2021/09/21 00:47:06;;;;;;;13.13;10.15;;;11.70;99.90;;;;;;2096923;28;20274;-68
2021/09/21 00:48:06;;;;;;;13.93;9.60;;;11.70;99.90;;;;;;2097480;28;20036;-68
2021/09/21 00:49:07;;;;;;;15.93;10.50;;;11.70;99.90;;;;;;2096767;28;20035;-69
2021/09/21 00:50:07;;;;;;;13.98;10.38;;;11.70;99.90;;;;;;2096762;28;20035;-70
2021/09/21 00:51:08;;;;;;;13.65;10.30;;;11.70;99.90;;;;;;2097545;28;20020;-69
2021/09/21 00:52:09;;;;;;;13.38;9.75;;;11.70;99.90;;;;;;2097308;28;20032;-68
2021/09/21 00:53:10;;;;;;;12.43;9.90;;;11.70;99.90;;;;;;2096747;28;20021;-68
2021/09/21 00:54:10;;;;;;;12.80;9.73;;;11.70;99.90;;;;;;2088457;28;20033;-68
2021/09/21 00:55:11;;;;;;;14.15;9.77;;;11.70;99.90;;;;;;2096621;28;20474;-68
2021/09/21 00:56:12;;;;;;;14.32;10.32;;;11.70;99.90;;;;;;2097252;28;20033;-72
2021/09/21 00:57:13;;;;;;;12.48;9.82;;;11.70;99.90;;;;;;2096676;28;20436;-71
2021/09/21 00:58:13;;;;;;;13.88;10.35;;;11.70;99.90;;;;;;2097315;28;20033;-72
2021/09/21 00:59:15;;;;;;;13.13;9.70;;;11.70;99.90;;;;;;2097477;28;20413;-71
2021/09/21 01:00:18;;;;;;;11.45;9.20;;;11.70;99.90;;;;;;2097990;28;20029;-72
2021/09/21 01:01:18;;;;;;;13.25;10.02;;;11.70;99.90;;;;;;2098324;28;20113;-69
2021/09/21 01:02:19;;;;;;;13.20;9.55;;;11.70;99.90;;;;;;2097627;28;20041;-71
2021/09/21 01:03:19;;;;;;;12.20;9.52;;;11.70;99.90;;;;;;2097086;28;20032;-71
2021/09/21 01:04:20;;;;;;;14.38;10.52;;;11.70;99.90;;;;;;2097349;28;20029;-70
2021/09/21 01:05:21;;;;;;;12.55;10.10;;;11.70;99.90;;;;;;2096484;28;20025;-70
2021/09/21 01:06:21;;;;;;;14.75;10.63;;;11.70;99.90;;;;;;2096588;28;20051;-70
2021/09/21 01:07:22;;;;;;;12.48;9.70;;;11.70;99.90;;;;;;2096504;28;20024;-70
2021/09/21 01:08:30;;;;;;;15.60;10.20;;;11.70;99.90;;;;;;2097299;28;20031;-71
2021/09/21 01:09:30;;;;;;;12.60;10.05;;;11.60;99.90;;;;;;2097220;28;20020;-70
2021/09/21 01:10:31;;;;;;;12.82;10.20;;;11.60;99.90;;;;;;2097285;28;20035;-71
2021/09/21 01:11:32;;;;;;;12.63;10.27;;;11.60;99.90;;;;;;2097340;28;20027;-71
2021/09/21 01:12:33;;;;;;;15.15;10.70;;;11.60;99.90;;;;;;2097719;28;20083;-70
2021/09/21 01:13:33;;;;;;;14.35;9.73;;;11.60;99.90;;;;;;2098354;28;20750;-70
2021/09/21 01:14:34;;;;;;;13.57;9.93;;;11.60;99.90;;;;;;2098153;28;20366;-70
2021/09/21 01:15:35;;;;;;;13.15;9.98;;;11.60;99.90;;;;;;2099026;28;20390;-70
2021/09/21 01:16:35;;;;;;;14.35;10.45;;;11.60;99.90;;;;;;2098108;28;20031;-70
2021/09/21 01:17:37;;;;;;;13.43;9.57;;;11.60;99.90;;;;;;2097410;28;20037;-70
2021/09/21 01:18:37;;;;;;;11.43;9.30;;;11.60;99.90;;;;;;2097504;28;20025;-70
2021/09/21 01:19:38;;;;;;;12.95;9.30;;;11.60;99.90;;;;;;2096922;28;20103;-70
2021/09/21 01:20:39;;;;;;;13.43;9.70;;;11.60;99.90;;;;;;2088450;28;20517;-69
2021/09/21 01:21:41;;;;;;;12.40;9.77;;;11.60;99.90;;;;;;2096777;28;20074;-67
2021/09/21 01:22:41;;;;;;;11.52;9.50;;;11.60;99.90;;;;;;2097740;28;20051;-68
2021/09/21 01:23:51;;;;;;;11.75;9.63;;;11.60;99.90;;;;;;2097713;28;20025;-69
2021/09/21 01:24:54;;;;;;;11.93;9.45;;;11.60;99.90;;;;;;2097591;28;20040;-69
2021/09/21 01:25:58;;;;;;;12.25;9.98;;;11.60;99.90;;;;;;2097326;28;20077;-70
2021/09/21 01:26:58;;;;;;;13.85;10.27;;;11.60;99.90;;;;;;2096665;28;20036;-70
2021/09/21 01:28:00;;;;;;;10.55;9.07;;;11.60;99.90;;;;;;2088726;28;20037;-70
2021/09/21 01:29:01;;;;;;;12.18;9.60;;;11.60;99.90;;;;;;2097741;28;20051;-69
2021/09/21 01:30:08;;;;;;;11.63;9.32;;;11.60;99.90;;;;;;2097216;28;20445;-69
2021/09/21 01:31:09;;;;;;;12.20;9.65;;;11.60;99.90;;;;;;2097140;28;20032;-70
2021/09/21 01:32:10;;;;;;;11.20;9.35;;;11.60;99.90;;;;;;2097245;28;20036;-71
2021/09/21 01:33:10;;;;;;;10.60;9.10;;;11.60;99.90;;;;;;2097035;28;20052;-71
2021/09/21 01:34:17;;;;;;;12.82;9.50;;;11.60;99.90;;;;;;2096646;28;20104;-70
2021/09/21 01:35:18;;;;;;;11.40;9.35;;;11.60;99.90;;;;;;2097381;28;20392;-70
2021/09/21 01:36:22;;;;;;;12.45;10.43;;;11.60;99.90;;;;;;2097090;28;20056;-70
2021/09/21 01:37:24;;;;;;;12.20;10.13;;;11.60;99.90;;;;;;2096462;28;20078;-70
2021/09/21 01:38:25;;;;;;;13.15;10.20;;;11.60;99.90;;;;;;2096573;28;20507;-70
2021/09/21 01:39:26;;;;;;;11.45;10.25;;;11.60;99.90;;;;;;2096927;28;20444;-70
2021/09/21 01:40:27;;;;;;;15.25;10.95;;;11.60;99.90;;;;;;2097168;28;20040;-70
2021/09/21 01:41:27;;;;;;;13.50;10.32;;;11.60;99.90;;;;;;2096922;28;20031;-70
2021/09/21 01:42:28;;;;;;;12.75;9.98;;;11.50;99.90;;;;;;2096985;28;20031;-70
2021/09/21 01:43:28;;;;;;;12.57;10.52;;;11.50;99.90;;;;;;2096335;28;20461;-71
2021/09/21 01:44:29;;;;;;;12.13;9.88;;;11.60;99.90;;;;;;2096391;28;20025;-70
2021/09/21 01:45:30;;;;;;;13.57;10.68;;;11.50;99.90;;;;;;2096363;28;20039;-70
2021/09/21 01:46:30;;;;;;;13.15;10.43;;;11.50;99.90;;;;;;2088222;28;20017;-70
2021/09/21 01:47:31;;;;;;;14.82;10.57;;;11.50;99.90;;;;;;2095877;28;20032;-70
2021/09/21 01:48:32;;;;;;;11.57;9.45;;;11.50;99.90;;;;;;2096400;28;20159;-69
2021/09/21 01:50:19;;;;;;;13.45;10.23;;;11.50;99.90;;;;;;2096472;28;20366;-69
2021/09/21 01:51:03;;;;;;;13.07;9.63;;;11.50;99.90;;;;;;2095983;28;20115;-70
2021/09/21 01:52:12;;;;;;;11.65;9.63;;;11.50;99.90;;;;;;2096223;28;20044;-69
2021/09/21 01:53:27;;;;;;;14.55;10.57;;;11.60;99.90;;;;;;2096536;28;20023;-70
2021/09/21 01:58:18;;;;;;;14.10;9.98;;;11.50;99.90;;;;;;2096350;28;20043;-70
2021/09/21 01:59:34;;;;;;;12.80;10.10;;;11.50;99.90;;;;;;2097101;28;20470;-71
2021/09/21 02:00:35;;;;;;;11.88;9.88;;;11.50;99.90;;;;;;2095955;28;20103;-71
2021/09/21 02:01:36;;;;;;;14.43;10.60;;;11.50;99.90;;;;;;2096454;28;20029;-71
2021/09/21 02:02:36;;;;;;;12.88;9.98;;;11.50;99.90;;;;;;2096277;28;20471;-71
2021/09/21 02:03:37;;;;;;;14.13;9.95;;;11.50;99.90;;;;;;2096347;28;20040;-71
2021/09/21 02:04:38;;;;;;;12.63;9.85;;;11.50;99.90;;;;;;2097010;28;20021;-71
2021/09/21 02:05:39;;;;;;;12.55;9.98;;;11.50;99.90;;;;;;2096550;28;20381;-71
2021/09/21 02:06:41;;;;;;;13.60;10.48;;;11.50;99.90;;;;;;2095939;28;20527;-71
2021/09/21 02:07:42;;;;;;;12.43;9.90;;;11.50;99.90;;;;;;2096857;28;20031;-70
2021/09/21 02:08:43;;;;;;;12.18;10.20;;;11.50;99.90;;;;;;2097052;28;20086;-71
2021/09/21 02:09:43;;;;;;;13.57;10.20;;;11.50;99.90;;;;;;2096985;28;20028;-69
2021/09/21 02:10:44;;;;;;;12.45;10.00;;;11.50;99.90;;;;;;2096851;28;20063;-70
2021/09/21 02:11:46;;;;;;;11.80;10.07;;;11.50;99.90;;;;;;2096972;28;20028;-69
2021/09/21 02:12:47;;;;;;;12.98;10.70;;;11.50;99.90;;;;;;2096865;28;20051;-70
2021/09/21 02:13:47;;;;;;;12.50;9.98;;;11.50;99.90;;;;;;2096291;28;20025;-69
2021/09/21 02:14:48;;;;;;;12.52;10.55;;;11.50;99.90;;;;;;2088063;28;20048;-69
2021/09/21 02:15:48;;;;;;;12.07;10.02;;;11.50;99.90;;;;;;2087951;28;20068;-71
2021/09/21 02:16:54;;;;;;;14.15;10.05;;;11.50;99.90;;;;;;2095526;28;20482;-70
2021/09/21 02:17:55;;;;;;;12.55;10.00;;;11.50;99.90;;;;;;2103915;28;20042;-70
2021/09/21 02:18:56;;;;;;;12.25;10.20;;;11.50;99.90;;;;;;2096912;28;20050;-70
2021/09/21 02:19:56;;;;;;;13.43;10.45;;;11.50;99.90;;;;;;2096245;28;20037;-71
2021/09/21 02:20:57;;;;;;;13.55;10.00;;;11.50;99.90;;;;;;2096286;28;20024;-71
2021/09/21 02:21:58;;;;;;;12.02;9.88;;;11.50;99.90;;;;;;2096897;28;20025;-71
2021/09/21 02:22:58;;;;;;;13.77;10.57;;;11.50;99.90;;;;;;2097097;28;20028;-71
2021/09/21 02:24:00;;;;;;;13.80;10.25;;;11.50;99.90;;;;;;2097074;28;20028;-71
2021/09/21 02:25:01;;;;;;;13.05;10.40;;;11.50;99.90;;;;;;2097048;28;20120;-71
2021/09/21 02:26:01;;;;;;;11.77;9.90;;;11.50;99.90;;;;;;2096956;28;20029;-71
2021/09/21 02:27:02;;;;;;;13.32;10.60;;;11.50;99.90;;;;;;2096406;28;20079;-71
2021/09/21 02:28:03;;;;;;;14.50;10.68;;;11.50;99.90;;;;;;2097126;28;20020;-70
2021/09/21 02:29:04;;;;;;;12.95;10.27;;;11.50;99.90;;;;;;2097080;28;20060;-71
2021/09/21 02:30:05;;;;;;;14.57;10.73;;;11.50;99.90;;;;;;2096868;28;20025;-70
2021/09/21 02:31:06;;;;;;;12.75;10.32;;;11.50;99.90;;;;;;2096399;28;20118;-70
2021/09/21 02:32:06;;;;;;;13.43;10.38;;;11.50;99.90;;;;;;2087775;28;20091;-70
2021/09/21 02:33:07;;;;;;;12.35;9.77;;;11.50;99.90;;;;;;2096107;28;20028;-70
2021/09/21 02:34:08;;;;;;;12.85;10.52;;;11.50;99.90;;;;;;2096024;28;20123;-70
2021/09/21 02:35:08;;;;;;;13.70;10.48;;;11.50;99.90;;;;;;2087801;28;20056;-70
2021/09/21 02:36:09;;;;;;;13.50;10.27;;;11.50;99.90;;;;;;2087699;28;20017;-70
2021/09/21 02:37:10;;;;;;;13.00;10.32;;;11.50;99.90;;;;;;2095514;28;20039;-70
2021/09/21 02:38:11;;;;;;;13.32;10.20;;;11.50;99.90;;;;;;2096073;28;20489;-69
2021/09/21 02:39:12;;;;;;;13.82;10.02;;;11.50;99.90;;;;;;2096250;28;20035;-69
2021/09/21 02:40:14;;;;;;;11.98;10.13;;;11.50;99.90;;;;;;2096124;28;20044;-70
2021/09/21 02:41:15;;;;;;;14.70;10.20;;;11.50;99.90;;;;;;2096172;28;20103;-70
2021/09/21 02:42:16;;;;;;;12.15;10.15;;;11.50;99.90;;;;;;2096238;28;20510;-69
2021/09/21 02:43:16;;;;;;;12.93;10.32;;;11.50;99.90;;;;;;2095916;28;20045;-70
2021/09/21 02:44:17;;;;;;;13.70;10.23;;;11.50;99.90;;;;;;2095975;28;20032;-70
2021/09/21 02:45:18;;;;;;;12.30;10.07;;;11.50;99.90;;;;;;2096854;28;20461;-70
2021/09/21 02:46:18;;;;;;;13.27;10.30;;;11.50;99.90;;;;;;2096017;28;20037;-71
2021/09/21 02:47:19;;;;;;;13.15;10.25;;;11.50;99.90;;;;;;2095367;28;20085;-71
2021/09/21 02:48:19;;;;;;;12.75;10.32;;;11.50;99.90;;;;;;2096724;28;20426;-70
2021/09/21 02:49:20;;;;;;;13.90;10.15;;;11.50;99.90;;;;;;2096168;28;20444;-70
2021/09/21 02:50:21;;;;;;;12.95;9.82;;;11.50;99.90;;;;;;2096199;28;20050;-71
2021/09/21 02:51:22;;;;;;;12.23;9.73;;;11.50;99.90;;;;;;2096813;28;20037;-70
2021/09/21 02:52:22;;;;;;;13.05;10.40;;;11.50;99.90;;;;;;2096794;28;20075;-70
2021/09/21 02:53:23;;;;;;;13.48;10.30;;;11.50;99.90;;;;;;2096732;28;20031;-71
2021/09/21 02:54:23;;;;;;;12.43;10.07;;;11.50;99.90;;;;;;2096933;28;20128;-71
2021/09/21 02:55:24;;;;;;;12.68;10.02;;;11.50;99.90;;;;;;2096808;28;20384;-70
2021/09/21 02:56:25;;;;;;;13.82;10.20;;;11.50;99.90;;;;;;2096716;28;20043;-71
2021/09/21 02:57:25;;;;;;;13.55;10.23;;;11.50;99.90;;;;;;2095341;28;20405;-71
2021/09/21 02:58:26;;;;;;;13.35;10.32;;;11.50;99.90;;;;;;2096132;28;20035;-70
2021/09/21 02:59:27;;;;;;;13.55;10.18;;;11.50;99.90;;;;;;2096814;28;20032;-70
2021/09/21 03:00:28;;;;;;;11.07;9.50;;;11.50;99.90;;;;;;2096316;28;20032;-71
2021/09/21 03:01:29;;;;;;;13.50;10.32;;;11.50;99.90;;;;;;2097719;28;20615;-71
2021/09/21 03:02:32;;;;;;;13.70;10.43;;;11.50;99.90;;;;;;2098736;28;20096;-70
2021/09/21 03:03:41;;;;;;;13.27;9.90;;;11.50;99.90;;;;;;2099297;28;20025;-71
2021/09/21 03:04:51;;;;;;;14.80;10.55;;;11.50;99.90;;;;;;2097770;28;20037;-71
2021/09/21 03:05:58;;;;;;;12.30;9.75;;;11.50;99.90;;;;;;2097197;28;20130;-71
2021/09/21 03:07:11;;;;;;;12.85;10.10;;;11.50;99.90;;;;;;2095796;28;20036;-69
2021/09/21 03:08:17;;;;;;;14.27;10.50;;;11.50;99.90;;;;;;2096817;28;20024;-70
2021/09/21 03:09:34;;;;;;;12.75;10.23;;;11.50;99.90;;;;;;2096686;28;20755;-68
2021/09/21 03:11:59;;;;;;;12.10;9.82;;;11.50;99.90;;;;;;2096175;28;20075;-68
2021/09/21 03:13:18;;;;;;;14.18;10.40;;;11.50;99.90;;;;;;2096920;28;20044;-69
2021/09/21 03:17:18;;;;;;;13.80;10.90;;;11.40;99.90;;;;;;2097399;28;20040;-68
2021/09/21 03:18:19;;;;;;;12.95;10.25;;;11.40;99.90;;;;;;2098202;28;20032;-69
2021/09/21 03:19:19;;;;;;;13.45;11.20;;;11.50;99.90;;;;;;2097268;28;20024;-71
2021/09/21 03:20:20;;;;;;;16.00;11.30;;;11.40;99.90;;;;;;2097519;28;20035;-70
2021/09/21 03:21:21;;;;;;;15.68;10.90;;;11.50;99.90;;;;;;2098080;28;20099;-69
2021/09/21 03:22:24;;;;;;;14.20;10.90;;;11.40;99.90;;;;;;2098185;28;20025;-70
2021/09/21 03:23:25;;;;;;;12.88;10.27;;;11.40;99.90;;;;;;2098000;28;20044;-70
2021/09/21 03:24:26;;;;;;;14.70;10.40;;;11.40;99.90;;;;;;2097991;28;20548;-70
2021/09/21 03:25:26;;;;;;;14.18;10.40;;;11.40;99.90;;;;;;2097399;28;20154;-70
2021/09/21 03:26:27;;;;;;;15.65;10.60;;;11.50;99.90;;;;;;2089216;28;20482;-70
2021/09/21 03:27:28;;;;;;;13.43;10.10;;;11.40;99.90;;;;;;2096559;28;20362;-71
2021/09/21 03:28:28;;;;;;;15.32;10.57;;;11.50;99.90;;;;;;2098008;28;20028;-70
2021/09/21 03:29:29;;;;;;;12.68;10.38;;;11.40;99.90;;;;;;2098090;28;20108;-70
2021/09/21 03:30:29;;;;;;;13.63;10.43;;;11.40;99.90;;;;;;2097931;28;20109;-71
2021/09/21 03:31:30;;;;;;;12.45;10.13;;;11.40;99.90;;;;;;2097970;28;20056;-70
2021/09/21 03:32:30;;;;;;;12.43;10.02;;;11.40;99.90;;;;;;2097899;28;20032;-71
2021/09/21 03:33:33;;;;;;;14.63;10.27;;;11.40;99.90;;;;;;2097920;28;20478;-70
2021/09/21 03:34:37;;;;;;;15.10;10.27;;;11.40;99.90;;;;;;2097958;28;20024;-71
2021/09/21 03:35:37;;;;;;;13.18;10.30;;;11.50;99.90;;;;;;2097984;28;20037;-69
2021/09/21 03:36:38;;;;;;;13.13;10.15;;;11.40;99.90;;;;;;2097974;28;20029;-70
2021/09/21 03:37:39;;;;;;;12.98;10.13;;;11.40;99.90;;;;;;2097270;28;20071;-70
2021/09/21 03:38:39;;;;;;;13.98;10.35;;;11.40;99.90;;;;;;2097871;28;20032;-69
2021/09/21 03:39:40;;;;;;;14.48;10.38;;;11.50;99.90;;;;;;2097859;28;20025;-70
2021/09/21 03:40:41;;;;;;;13.38;10.63;;;11.40;99.90;;;;;;2097841;28;20562;-71
2021/09/21 03:41:42;;;;;;;13.43;10.02;;;11.40;99.90;;;;;;2098050;28;20031;-70
2021/09/21 03:42:42;;;;;;;13.15;10.02;;;11.40;99.90;;;;;;2097685;28;20021;-69
2021/09/21 03:43:43;;;;;;;13.65;9.70;;;11.40;99.90;;;;;;2097949;28;20070;-70
2021/09/21 03:44:44;;;;;;;12.75;10.20;;;11.40;99.90;;;;;;2097130;28;20078;-70
2021/09/21 03:45:44;;;;;;;13.52;10.30;;;11.40;99.90;;;;;;2088931;28;20033;-71
2021/09/21 03:46:45;;;;;;;12.60;10.48;;;11.40;99.90;;;;;;2097266;28;20028;-71
2021/09/21 03:47:45;;;;;;;13.75;9.80;;;11.40;99.90;;;;;;2097435;28;20379;-70
2021/09/21 03:48:46;;;;;;;12.50;9.98;;;11.40;99.90;;;;;;2098042;28;20422;-70
2021/09/21 03:49:46;;;;;;;12.43;9.93;;;11.40;99.90;;;;;;2098137;28;20178;-72
2021/09/21 03:50:47;;;;;;;12.30;10.05;;;11.40;99.90;;;;;;2097184;28;20055;-70
2021/09/21 03:51:48;;;;;;;12.40;9.90;;;11.40;99.90;;;;;;2096989;28;20039;-70
2021/09/21 03:52:50;;;;;;;12.77;10.05;;;11.40;99.90;;;;;;2097072;28;20024;-71
2021/09/21 03:53:51;;;;;;;13.02;10.57;;;11.40;99.90;;;;;;2097135;28;20028;-69
2021/09/21 03:54:51;;;;;;;13.68;10.80;;;11.40;99.90;;;;;;2088886;28;20452;-68
2021/09/21 03:55:52;;;;;;;13.85;10.88;;;11.40;99.90;;;;;;2097072;28;20048;-70
2021/09/21 03:56:52;;;;;;;13.65;10.45;;;11.40;99.90;;;;;;2104876;28;20036;-72
2021/09/21 03:57:53;;;;;;;12.85;10.13;;;11.40;99.90;;;;;;2097727;28;20089;-69
2021/09/21 03:58:54;;;;;;;13.05;10.32;;;11.40;99.90;;;;;;2097901;28;20028;-69
2021/09/21 03:59:54;;;;;;;13.18;9.68;;;11.40;99.90;;;;;;2097694;28;20025;-69
2021/09/21 04:00:55;;;;;;;13.30;10.07;;;11.40;99.90;;;;;;2097791;28;20028;-68
2021/09/21 04:01:56;;;;;;;13.10;9.98;;;11.40;99.90;;;;;;2097685;28;20104;-68
2021/09/21 04:02:57;;;;;;;14.10;10.40;;;11.40;99.90;;;;;;2097827;28;20075;-69
2021/09/21 04:03:58;;;;;;;13.90;10.55;;;11.40;99.90;;;;;;2096960;28;20440;-70
2021/09/21 04:04:59;;;;;;;13.02;10.02;;;11.40;99.90;;;;;;2097147;28;20047;-71
2021/09/21 04:06:00;;;;;;;15.45;11.13;;;11.40;99.90;;;;;;2097883;28;20765;-69
2021/09/21 04:07:00;;;;;;;13.13;10.60;;;11.40;99.90;;;;;;2097096;28;20362;-69
2021/09/21 04:08:01;;;;;;;13.63;9.93;;;11.40;99.90;;;;;;2097713;28;20134;-69
2021/09/21 04:09:02;;;;;;;13.48;10.35;;;11.40;99.90;;;;;;2097615;28;20398;-69
2021/09/21 04:10:04;;;;;;;13.75;10.45;;;11.40;99.90;;;;;;2097619;28;20032;-69
2021/09/21 04:11:05;;;;;;;14.13;10.23;;;11.40;99.90;;;;;;2097731;28;20029;-68
2021/09/21 04:12:06;;;;;;;13.32;10.38;;;11.40;99.90;;;;;;2097734;28;20047;-68
2021/09/21 04:13:07;;;;;;;12.38;9.80;;;11.40;99.90;;;;;;2097716;28;20028;-68
2021/09/21 04:14:07;;;;;;;13.77;9.80;;;11.40;99.90;;;;;;2097543;28;20040;-69
2021/09/21 04:15:08;;;;;;;13.90;10.27;;;11.40;99.90;;;;;;2097719;28;20048;-68
2021/09/21 04:16:09;;;;;;;14.15;10.43;;;11.40;99.90;;;;;;2096877;28;20025;-69
2021/09/21 04:17:10;;;;;;;13.35;10.50;;;11.40;99.90;;;;;;2087912;28;20124;-71
2021/09/21 04:18:11;;;;;;;14.13;10.50;;;11.40;99.90;;;;;;2088698;28;20100;-70
2021/09/21 04:19:11;;;;;;;14.45;10.20;;;11.40;99.90;;;;;;2096852;28;20095;-70
2021/09/21 04:20:12;;;;;;;13.32;9.75;;;11.40;99.90;;;;;;2097797;28;20024;-71
2021/09/21 04:21:13;;;;;;;12.98;9.93;;;11.40;99.90;;;;;;2097611;28;20107;-70
2021/09/21 04:22:13;;;;;;;15.15;10.48;;;11.40;99.90;;;;;;2097378;28;20472;-70
2021/09/21 04:23:14;;;;;;;12.02;9.32;;;11.40;99.90;;;;;;2097654;28;20033;-70
2021/09/21 04:24:15;;;;;;;13.98;10.07;;;11.40;99.90;;;;;;2097245;28;20100;-70
2021/09/21 04:25:15;;;;;;;14.10;10.45;;;11.40;99.90;;;;;;2097491;28;20371;-70
2021/09/21 04:26:16;;;;;;;14.15;10.00;;;11.30;99.90;;;;;;2097546;28;20028;-70
2021/09/21 04:27:17;;;;;;;13.82;10.85;;;11.30;99.90;;;;;;2096488;28;20053;-70
2021/09/21 04:28:20;;;;;;;13.00;10.30;;;11.40;99.90;;;;;;2097493;28;20028;-70
2021/09/21 04:29:20;;;;;;;13.80;10.18;;;11.40;99.90;;;;;;2097445;28;20099;-70
2021/09/21 04:30:22;;;;;;;13.00;10.05;;;11.40;99.90;;;;;;2097338;28;20343;-70
2021/09/21 04:31:24;;;;;;;12.57;10.05;;;11.40;99.90;;;;;;2096714;28;20029;-70
2021/09/21 04:32:25;;;;;;;11.75;9.82;;;11.40;99.90;;;;;;2096760;28;20020;-70
2021/09/21 04:33:25;;;;;;;14.90;10.60;;;11.40;99.90;;;;;;2096746;28;20028;-70
2021/09/21 04:34:26;;;;;;;14.60;10.43;;;11.40;99.90;;;;;;2096801;28;20036;-70
2021/09/21 04:35:27;;;;;;;13.65;10.60;;;11.40;99.90;;;;;;2097466;28;20389;-70
2021/09/21 04:36:27;;;;;;;14.57;10.27;;;11.40;99.90;;;;;;2097365;28;20389;-70
2021/09/21 04:37:28;;;;;;;14.27;10.38;;;11.40;99.90;;;;;;2096597;28;20024;-70
2021/09/21 04:38:28;;;;;;;13.00;10.60;;;11.40;99.90;;;;;;2097434;28;20138;-70
2021/09/21 04:39:29;;;;;;;13.90;10.48;;;11.40;99.90;;;;;;2097382;28;20438;-70
2021/09/21 04:40:30;;;;;;;12.70;10.02;;;11.30;99.90;;;;;;2097355;28;20104;-70
2021/09/21 04:41:30;;;;;;;12.13;10.25;;;11.30;99.90;;;;;;2097329;28;20389;-70
2021/09/21 04:42:31;;;;;;;13.38;10.45;;;11.40;99.90;;;;;;2097193;28;20020;-70
2021/09/21 04:43:35;;;;;;;12.52;9.82;;;11.30;99.90;;;;;;2097455;28;20468;-70
2021/09/21 04:44:37;;;;;;;13.27;10.52;;;11.40;99.90;;;;;;2096868;28;20046;-70
2021/09/21 04:45:38;;;;;;;13.57;10.18;;;11.30;99.90;;;;;;2096912;28;20020;-70
2021/09/21 04:46:39;;;;;;;13.38;10.27;;;11.40;99.90;;;;;;2096862;28;20025;-70
2021/09/21 04:47:40;;;;;;;15.43;11.15;;;11.30;99.90;;;;;;2096258;28;20028;-71
2021/09/21 04:48:41;;;;;;;15.13;11.05;;;11.30;99.90;;;;;;2097725;28;20493;-70
2021/09/21 04:49:41;;;;;;;15.63;11.57;;;11.40;99.90;;;;;;2096950;28;20489;-70
2021/09/21 04:50:42;;;;;;;13.13;10.73;;;11.40;99.90;;;;;;2096804;28;20099;-70
2021/09/21 04:51:42;;;;;;;13.20;10.43;;;11.40;99.90;;;;;;2097355;28;20478;-70
2021/09/21 04:52:43;;;;;;;13.13;10.57;;;11.40;99.90;;;;;;2097298;28;20089;-70
2021/09/21 04:53:44;;;;;;;13.38;10.45;;;11.40;99.90;;;;;;2097460;28;20036;-70
2021/09/21 04:54:45;;;;;;;13.45;10.35;;;11.40;99.90;;;;;;2096768;28;20031;-69
2021/09/21 04:55:45;;;;;;;15.68;11.20;;;11.40;99.90;;;;;;2096642;28;20063;-70
2021/09/21 04:56:46;;;;;;;13.25;10.57;;;11.40;99.90;;;;;;2097424;28;20068;-69
2021/09/21 04:57:46;;;;;;;12.82;10.35;;;11.40;99.90;;;;;;2095809;28;20032;-69
2021/09/21 04:58:47;;;;;;;13.90;10.70;;;11.40;99.90;;;;;;2096697;28;20651;-70
2021/09/21 04:59:48;;;;;;;15.43;10.93;;;11.40;99.90;;;;;;2097257;28;20025;-70
2021/09/21 05:00:49;;;;;;;14.70;10.73;;;11.40;99.90;;;;;;2097276;28;20075;-70
2021/09/21 05:01:50;;;;;;;15.15;11.00;;;11.40;99.90;;;;;;2105099;28;20097;-69
2021/09/21 05:02:50;;;;;;;13.55;10.40;;;11.40;99.90;;;;;;2104976;28;20077;-70
2021/09/21 05:03:51;;;;;;;13.82;10.77;;;11.40;99.90;;;;;;2097205;28;20040;-70
2021/09/21 05:04:51;;;;;;;14.07;10.68;;;11.40;99.90;;;;;;2097194;28;20133;-69
2021/09/21 05:05:52;;;;;;;12.25;10.05;;;11.40;99.90;;;;;;2097210;28;20103;-69
2021/09/21 05:06:53;;;;;;;12.40;10.00;;;11.40;99.90;;;;;;2097243;28;20033;-68
2021/09/21 05:07:54;;;;;;;13.05;10.25;;;11.40;99.90;;;;;;2096720;28;20548;-69
2021/09/21 05:08:54;;;;;;;12.68;9.93;;;11.40;99.90;;;;;;2097169;28;20039;-69
2021/09/21 05:09:55;;;;;;;15.23;11.07;;;11.40;99.90;;;;;;2097176;28;20112;-69
2021/09/21 05:10:55;;;;;;;13.82;10.45;;;11.40;99.90;;;;;;2096546;28;20066;-68
2021/09/21 05:11:56;;;;;;;14.30;10.50;;;11.40;99.90;;;;;;2096456;28;20032;-69
2021/09/21 05:12:57;;;;;;;13.52;10.45;;;11.40;99.90;;;;;;2096432;28;20523;-68
2021/09/21 05:13:57;;;;;;;14.77;10.35;;;11.40;99.90;;;;;;2088061;28;20106;-68
2021/09/21 05:14:58;;;;;;;14.13;10.55;;;11.50;99.90;;;;;;2096620;28;20039;-68
2021/09/21 05:15:58;;;;;;;13.20;10.10;;;11.50;99.90;;;;;;2097281;28;20036;-69
2021/09/21 05:16:59;;;;;;;15.20;10.45;;;11.50;99.90;;;;;;2096908;28;20473;-70
2021/09/21 05:18:00;;;;;;;16.80;14.18;;;11.50;99.90;;;;;;2096615;28;20093;-69
2021/09/21 05:19:01;;;;;;;16.20;13.70;;;11.50;99.90;;;;;;2097055;28;20032;-68
2021/09/21 05:20:03;;;;;;;16.98;13.00;;;11.50;99.90;;;;;;2096560;28;20445;-69
2021/09/21 05:21:04;;;;;;;17.02;12.68;;;11.50;99.90;;;;;;2087555;28;20052;-70
2021/09/21 05:22:05;;;;;;;14.85;11.85;;;11.50;99.90;;;;;;2089043;28;20460;-71